Sunday, February 17, 2019, 3:05 PM EST
Back to Local

KGFL, Floyd Bennett Memorial Airport

Location: Queensbury, NY, United States Lat: 43.333
Local Time: 3:05 PM EST (20:05 GMT) Lon: -73.617
Time Zone: US/Eastern Elev: 328 ft

Show me the last for .
Show Coded

Time T Td Feel RH Dir Speed Gust Alt SLP Vis Weather Sky Remarks
2019-02-17 14:53 24 6 16 45 80° 7 - 30.11 30.14 10 CLR None
2019-02-17 13:53 24 7 18 47 70° 5 - 30.13 30.16 10 CLR None
2019-02-17 12:53 22 7 13 51 80° 7 - 30.13 30.16 10 CLR 6-hr Min Temp (1pm): 5.0°F
6-hr Max Temp (1pm): 23.0°F
2019-02-17 11:53 21 7 16 53 50° 3 - 30.16 30.19 10 CLR None
2019-02-17 10:53 18 5 10 56 70° 6 - 30.18 30.21 10 CLR None
2019-02-17 09:53 17 5 7 58 70° 8 - 30.19 30.22 10 CLR None
2019-02-17 08:53 16 5 5 61 70° 8 - 30.19 30.23 10 CLR None
2019-02-17 07:53 12 6 4 76 360° 5 - 30.20 30.23 10 CLR None
2019-02-17 06:53 6 1 -1 79 360° 3 - 30.16 30.19 10 CLR 6-hr Min Temp (7am): 5.0°F
6-hr Max Temp (7am): 19.9°F
2019-02-17 05:53 9 3 - 76 - Calm - 30.13 30.17 10 CLR None
2019-02-17 04:53 10 4 - 75 - Calm - 30.12 30.15 10 CLR None
2019-02-17 03:53 13 5 7 69 40° 3 - 30.10 30.13 10 CLR None
2019-02-17 02:53 16 6 10 64 360° 3 - 30.10 30.13 10 CLR None
2019-02-17 01:53 19 7 10 58 360° 7 - 30.09 30.11 10 CLR None
2019-02-17 00:53 20 7 13 56 10° 5 - 30.09 30.12 10 CLR 6-hr Min Temp (1am): 19.9°F
6-hr Max Temp (1am): 28.0°F
2019-02-16 23:53 21 8 13 56 350° 6 - 30.07 30.09 10 CLR 24-hr Min Temp (12am): 21.0°F
24-hr Max Temp (12am): 37.0°F
2019-02-16 22:53 23 9 16 54 330° 6 - 30.04 30.07 10 CLR None
2019-02-16 21:53 25 9 16 49 350° 8 - 30.03 30.05 10 CLR None
2019-02-16 20:53 25 10 16 52 20° 9 - 30.00 30.03 10 CLR None
2019-02-16 19:53 26 10 12 50 330° 15 22 29.98 30.01 10 CLR None
2019-02-16 18:53 28 11 17 48 320° 13 - 29.99 30.01 10 CLR 6-hr Min Temp (7pm): 28.0°F
6-hr Max Temp (7pm): 37.0°F
2019-02-16 17:53 30 12 16 46 350° 15 24 29.96 29.98 10 CLR None
2019-02-16 16:53 33 14 25 44 320° 10 - 29.91 29.93 10 CLR None
2019-02-16 15:53 35 14 27 41 290° 12 - 29.88 29.90 10 FEW050 None

Support USWX by starting your Amazon purchase here.